Latest Weather Observations for Bradshaw

IDD60801

Issued at 4:05 pm CST Wednesday 3 September 2014 (issued every 30 minutes, with the page automatically refreshed every 10 minutes)

About weather observations | Map of weather stations | Latest weather observations for NT | Other Formats
Station Details ID: 014954 Name: BRADSHAW Lat: -14.94 Lon: 130.81 Height: 75.0 m
Data from the previous 72 hours. | See also: Recent months at Bradshaw
Date/Time
CST
Temp
°C
App
Temp
°C
Dew
Point
Rel
Hum
%
Delta-T
°C
Wind Press
QNH
hPa
Press
MSL
hPa
Rain
since 9 am
mm
Dir
 
Spd
km/h
Gust
km/h
Spd
kts
Gust
kts
03/04:00pm 34.9 28.6 -4.2 8 18.1 SE 20 28 11 15 1013.3 - 0.0
03/03:30pm 34.9 28.6 -4.2 8 18.1 S 20 30 11 16 1013.7 - 0.0
03/03:00pm 35.6 29.9 -3.7 8 18.4 SE 17 26 9 14 1014.0 1013.5 0.0
03/02:30pm 35.3 29.8 -2.3 9 18.0 E 17 28 9 15 1014.4 - 0.0
03/02:00pm 34.4 29.7 -1.6 10 17.3 ESE 13 20 7 11 1015.0 - 0.0
03/01:30pm 34.4 29.5 -0.3 11 17.0 SE 15 26 8 14 1015.5 - 0.0
03/01:00pm 32.8 28.6 1.8 14 15.6 ESE 13 26 7 14 1016.0 - 0.0
03/12:30pm 33.3 29.7 3.2 15 15.5 N 11 19 6 10 1016.6 - 0.0
03/12:00pm 32.2 29.9 5.7 19 14.1 SE 7 19 4 10 1017.2 1016.8 0.0
03/11:30am 30.8 28.7 6.6 22 13.0 NNW 7 15 4 8 1017.7 - 0.0
03/11:00am 30.3 28.3 6.9 23 12.6 SE 7 13 4 7 1018.3 - 0.0
03/10:30am 29.5 27.5 6.2 23 12.4 ENE 6 11 3 6 1018.6 - 0.0
03/10:00am 27.6 25.6 4.6 23 11.7 SE 4 9 2 5 1018.8 - 0.0
03/09:30am 26.1 23.5 3.4 23 11.2 S 6 11 3 6 1018.8 - 0.0
03/09:00am 24.7 21.6 1.6 22 10.9 SSE 7 11 4 6 1018.7 1018.3 0.0
03/08:30am 24.2 22.6 2.4 24 10.5 CALM 0 6 0 3 1018.5 - 0.0
03/08:00am 22.0 19.0 2.2 27 9.3 N 7 11 4 6 1018.3 - 0.0
03/07:30am 17.5 15.7 1.1 33 7.3 CALM 0 2 0 1 1017.8 - 0.0
03/07:00am 17.2 14.3 1.2 34 7.1 NNE 6 11 3 6 1017.3 - 0.0
03/06:30am 18.2 16.4 1.3 32 7.6 CALM 0 0 0 0 1017.0 - 0.0
03/06:00am 20.2 16.6 0.6 27 8.8 NNE 9 11 5 6 1016.5 1016.1 0.0
03/05:30am 19.5 16.5 1.9 31 8.1 N 7 13 4 7 1016.2 - 0.0
03/05:00am 18.7 17.1 7.8 49 5.6 N 6 9 3 5 1015.9 - 0.0
03/04:30am 17.8 14.8 0.9 32 7.5 SE 6 9 3 5 1015.6 - 0.0
03/04:00am 20.1 17.6 1.5 29 8.5 NNW 4 7 2 4 1015.3 - 0.0
03/03:30am 22.4 18.9 -1.0 21 10.4 NW 7 11 4 6 1015.5 - 0.0
03/03:00am 24.0 19.6 -2.5 17 11.6 ENE 11 17 6 9 1015.5 1015.1 0.0
03/02:30am 23.4 19.1 -1.5 19 11.0 NW 11 13 6 7 1015.2 - 0.0
03/02:00am 23.9 21.4 -1.1 19 11.2 E 2 7 1 4 1015.3 - 0.0
03/01:30am 22.3 18.9 -0.4 22 10.2 N 7 11 4 6 1015.6 - 0.0
03/01:00am 23.8 20.3 -1.2 19 11.2 E 7 13 4 7 1015.7 - 0.0
03/12:30am 25.3 21.7 0.7 20 11.5 ENE 9 11 5 6 1015.2 - 0.0
03/12:00am 25.5 21.5 0.2 19 11.8 NNE 11 15 6 8 1015.4 1015.0 0.0
 
Date/Time
CST
Temp
°C
App
Temp
°C
Dew
Point
Rel
Hum
%
Delta-T
°C
Wind Press
QNH
hPa
Press
MSL
hPa
Rain
since 9 am
mm
Dir
 
Spd
km/h
Gust
km/h
Spd
kts
Gust
kts
02/11:30pm 23.9 19.8 -0.4 20 11.0 N 11 13 6 7 1015.4 - 0.0
02/11:00pm 22.8 18.8 0.6 23 10.2 N 11 15 6 8 1015.4 - 0.0
02/10:30pm 23.4 19.3 -0.1 21 10.7 NNE 11 13 6 7 1015.3 - 0.0
02/10:00pm 20.9 17.2 0.2 25 9.3 NE 9 9 5 5 1015.1 - 0.0
02/09:30pm 22.9 19.3 0.7 23 10.2 NE 9 11 5 6 1014.8 - 0.0
02/09:00pm 22.8 19.1 0.0 22 10.3 NE 9 13 5 7 1014.6 1014.1 0.0
02/08:30pm 25.0 21.6 -0.9 18 11.8 NE 7 11 4 6 1014.4 - 0.0
02/08:00pm 28.2 24.4 -0.9 15 13.5 ENE 9 11 5 6 1014.0 - 0.0
02/07:30pm 30.6 26.5 -3.2 11 15.4 ENE 9 11 5 6 1013.6 - 0.0
02/07:00pm 31.7 27.2 -3.6 10 16.1 E 11 17 6 9 1013.2 - 0.0
02/06:30pm 33.7 28.4 -3.5 9 17.2 E 15 20 8 11 1012.8 - 0.0
02/06:00pm 35.1 28.8 -4.1 8 18.2 ESE 20 32 11 17 1012.6 1012.1 0.0
02/05:30pm 35.8 30.1 -3.5 8 18.5 E 17 26 9 14 1012.4 - 0.0
02/05:00pm 36.5 30.5 -3.0 8 18.8 E 19 26 10 14 1012.3 - 0.0
02/04:30pm 36.6 30.2 -4.7 7 19.2 ESE 20 28 11 15 1012.0 - 0.0
02/04:00pm 36.8 31.2 -6.6 6 19.6 ENE 15 26 8 14 1012.0 - 0.0
02/03:30pm 37.0 30.1 -6.5 6 19.7 ESE 22 35 12 19 1012.2 - 0.0
02/03:00pm 37.0 30.4 -8.8 5 20.0 ENE 19 35 10 19 1012.5 1012.0 0.0
02/02:30pm 36.6 29.6 -6.8 6 19.5 ESE 22 37 12 20 1013.0 - 0.0
02/02:00pm 35.5 29.8 -3.8 8 18.4 ESE 17 32 9 17 1013.4 - 0.0
02/01:30pm 36.3 30.1 -3.2 8 18.7 ESE 20 35 11 19 1014.0 - 0.0
02/01:00pm 35.7 28.7 -3.6 8 18.5 ESE 24 33 13 18 1014.4 - 0.0
02/12:30pm 34.8 28.1 -1.3 10 17.5 E 24 39 13 21 1015.0 - 0.0
02/12:00pm 34.7 27.6 -1.4 10 17.4 ESE 26 35 14 19 1015.6 1015.2 0.0
02/11:30am 33.3 28.6 3.2 15 15.5 ESE 17 46 9 25 1016.3 - 0.0
02/11:00am 32.2 28.2 4.9 18 14.4 E 15 24 8 13 1016.8 - 0.0
02/10:30am 31.0 27.1 5.4 20 13.5 NNE 15 22 8 12 1017.2 - 0.0
02/10:00am 29.8 25.8 6.5 23 12.5 NE 17 24 9 13 1017.3 - 0.0
02/09:30am 28.2 23.5 5.1 23 11.9 NNE 19 24 10 13 1017.2 - 0.0
02/09:00am 26.6 23.3 4.4 24 11.2 N 11 20 6 11 1017.0 1016.6 0.0
02/08:30am 24.1 20.2 3.4 26 10.1 NNE 13 15 7 8 1016.9 - 0.0
02/08:00am 22.1 17.4 3.3 29 9.0 N 17 22 9 12 1016.7 - 0.0
02/07:30am 20.2 17.2 4.3 35 7.7 N 9 15 5 8 1016.5 - 0.0
02/07:00am 17.2 13.2 3.1 39 6.5 N 13 15 7 8 1016.1 - 0.0
02/06:30am 16.8 14.1 2.8 39 6.4 NNW 6 9 3 5 1015.7 - 0.0
02/06:00am 17.7 14.6 3.6 39 6.6 NW 9 11 5 6 1015.5 1015.1 0.0
02/05:30am 17.6 14.2 2.0 35 7.1 NNW 9 13 5 7 1015.4 - 0.0
02/05:00am 21.3 18.7 3.0 30 8.7 N 6 7 3 4 1015.1 - 0.0
02/04:30am 19.4 16.7 2.7 33 7.8 N 6 7 3 4 1015.0 - 0.0
02/04:00am 16.5 13.7 2.2 38 6.4 N 6 7 3 4 1014.9 - 0.0
02/03:30am 18.3 15.4 2.6 35 7.2 NNE 7 11 4 6 1015.0 - 0.0
02/03:00am 16.4 13.2 0.9 35 6.8 N 7 11 4 6 1014.9 1014.4 0.0
02/02:30am 16.6 14.4 1.1 35 6.8 S 2 9 1 5 1015.2 - 0.0
02/02:00am 17.2 15.5 2.0 36 6.9 CALM 0 7 0 4 1015.4 - 0.0
02/01:30am 18.7 17.0 1.7 32 7.7 CALM 0 2 0 1 1015.4 - 0.0
02/01:00am 21.2 18.2 2.0 28 8.9 N 7 11 4 6 1015.4 - 0.0
02/12:30am 20.3 16.9 1.7 29 8.5 N 9 11 5 6 1015.3 - 0.0
02/12:00am 23.1 20.1 2.0 25 10.0 N 7 11 4 6 1015.1 1014.7 0.0
 
Date/Time
CST
Temp
°C
App
Temp
°C
Dew
Point
Rel
Hum
%
Delta-T
°C
Wind Press
QNH
hPa
Press
MSL
hPa
Rain
since 9 am
mm
Dir
 
Spd
km/h
Gust
km/h
Spd
kts
Gust
kts
01/11:30pm 21.0 18.0 2.3 29 8.7 N 7 13 4 7 1015.1 - 0.0
01/11:00pm 20.2 17.0 0.6 27 8.8 N 7 13 4 7 1015.0 - 0.0
01/10:30pm 23.1 20.0 1.4 24 10.1 N 7 11 4 6 1014.8 - 0.0
01/10:00pm 19.8 16.8 2.2 31 8.1 NE 7 9 4 5 1014.7 - 0.0
01/09:30pm 20.9 18.4 1.7 28 8.9 N 4 9 2 5 1014.4 - 0.0
01/09:00pm 21.4 19.2 1.1 26 9.3 SSW 2 13 1 7 1014.2 1013.7 0.0
01/08:30pm 23.6 21.2 0.0 21 10.8 NE 2 7 1 4 1013.8 - 0.0
01/08:00pm 25.0 22.3 0.5 20 11.4 ENE 4 7 2 4 1013.4 - 0.0
01/07:30pm 26.0 23.5 1.3 20 11.8 NE 4 7 2 4 1013.1 - 0.0
01/07:00pm 30.0 26.5 -1.4 13 14.7 ESE 7 9 4 5 1012.6 - 0.0
01/06:30pm 31.9 27.7 -1.0 12 15.7 E 11 15 6 8 1012.2 - 0.0
01/06:00pm 33.7 29.1 -0.8 11 16.7 SSE 13 15 7 8 1012.0 1011.5 0.0
01/05:30pm 34.1 29.0 -1.8 10 17.2 ESE 15 24 8 13 1012.0 - 0.0
01/05:00pm 34.6 29.6 -1.4 10 17.4 E 15 26 8 14 1012.0 - 0.0
01/04:30pm 34.7 28.9 -1.4 10 17.4 ESE 19 24 10 13 1012.2 - 0.0
01/04:00pm 34.9 31.0 -1.2 10 17.5 SSE 9 19 5 10 1012.2 - 0.0
01/03:30pm 34.9 30.3 -1.2 10 17.5 E 13 20 7 11 1012.3 - 0.0
01/03:00pm 35.5 30.2 -0.8 10 17.8 E 17 24 9 13 1012.6 1012.1 0.0
01/02:30pm 34.6 29.0 -0.1 11 17.1 ESE 19 28 10 15 1013.1 - 0.0
01/02:00pm 34.6 30.3 1.1 12 16.8 NE 13 24 7 13 1013.6 - 0.0
01/01:30pm 34.3 29.4 -0.4 11 17.0 E 15 32 8 17 1014.2 - 0.0
01/01:00pm 34.0 28.5 0.6 12 16.6 ESE 19 35 10 19 1014.8 - 0.0
01/12:30pm 33.6 29.3 3.4 15 15.7 SE 15 30 8 16 1015.4 - 0.0
01/12:00pm 32.4 28.8 5.0 18 14.5 NE 13 32 7 17 1015.9 1015.5 0.0
01/11:30am 32.2 28.4 5.7 19 14.2 N 15 22 8 12 1016.4 - 0.0
01/11:00am 30.9 28.4 8.0 24 12.6 NNE 11 17 6 9 1016.7 - 0.0
01/10:30am 29.8 27.2 7.7 25 12.1 N 11 19 6 10 1017.2 - 0.0
01/10:00am 28.6 25.5 7.2 26 11.5 N 13 20 7 11 1017.4 - 0.0
01/09:30am 26.6 22.5 6.1 27 10.7 NNE 17 24 9 13 1017.3 - 0.0
01/09:00am 25.4 21.4 2.8 23 11.0 NNE 13 19 7 10 1017.2 1016.8 0.0
01/08:30am 23.0 19.4 -1.8 19 10.9 N 7 13 4 7 1017.1 - 0.0
01/08:00am 21.5 16.7 -2.4 20 10.2 NNE 13 17 7 9 1016.8 - 0.0
01/07:30am 20.5 15.9 -1.3 23 9.5 NNE 13 17 7 9 1016.6 - 0.0
01/07:24am 19.2 15.4 -0.7 26 8.6 NNE 9 15 5 8 1016.6 - 0.0
01/07:00am 14.2 9.9 -1.8 33 6.5 NNE 11 15 6 8 1016.2 - 0.0
01/06:30am 13.8 10.4 -1.8 34 6.3 NW 6 7 3 4 1015.5 - 0.0
01/06:00am 14.8 11.3 -1.7 32 6.7 NNW 7 11 4 6 1015.2 1014.8 0.0
01/05:30am 16.2 12.6 -1.8 29 7.4 NNW 7 9 4 5 1014.9 - 0.0
01/05:00am 17.8 13.2 -1.4 27 8.1 NNW 13 15 7 8 1014.7 - 0.0
01/04:30am 17.3 13.1 -0.9 29 7.7 NNW 11 15 6 8 1014.5 - 0.0
01/04:00am 18.3 14.4 -1.5 26 8.4 N 9 13 5 7 1014.2 - 0.0
01/03:30am 16.3 11.7 -0.8 31 7.2 N 13 15 7 8 1014.1 - 0.0
01/03:00am 14.4 10.9 -1.2 34 6.4 N 7 11 4 6 1014.0 1013.5 0.0
01/02:30am 14.4 10.7 -2.9 30 6.8 N 7 9 4 5 1013.9 - 0.0
01/02:00am 15.2 11.7 -2.7 29 7.2 N 6 11 3 6 1013.9 - 0.0
01/01:30am 16.2 13.8 -2.8 27 7.7 CALM 0 0 0 0 1013.7 - 0.0
01/01:00am 15.6 12.1 -2.8 28 7.4 N 6 9 3 5 1013.9 - 0.0
01/12:30am 17.3 13.8 -2.9 25 8.2 NNE 6 11 3 6 1013.9 - 0.0
01/12:00am 18.6 15.0 -2.3 24 8.7 NNE 7 9 4 5 1013.7 1013.2 0.0
 
Date/Time
CST
Temp
°C
App
Temp
°C
Dew
Point
Rel
Hum
%
Delta-T
°C
Wind Press
QNH
hPa
Press
MSL
hPa
Rain
since 9 am
mm
Dir
 
Spd
km/h
Gust
km/h
Spd
kts
Gust
kts
31/11:30pm 17.4 13.7 -2.8 25 8.3 NNE 7 9 4 5 1013.6 - 0.0
31/11:00pm 18.6 14.8 -3.5 22 9.0 NNE 7 9 4 5 1013.6 - 0.0
31/10:30pm 20.5 16.3 -3.9 19 10.0 N 9 13 5 7 1013.7 - 0.0
31/10:00pm 21.5 17.8 -3.1 19 10.4 NE 7 9 4 5 1013.8 - 0.0
31/09:30pm 20.0 16.5 -3.0 21 9.6 NNE 6 9 3 5 1013.7 - 0.0
31/09:00pm 19.7 17.1 -5.3 18 9.9 CALM 0 0 0 0 1013.4 1013.0 0.0
31/08:30pm 20.8 18.2 -5.1 17 10.4 CALM 0 0 0 0 1013.1 - 0.0
31/08:00pm 22.8 20.2 -5.2 15 11.5 CALM 0 0 0 0 1012.8 - 0.0
31/07:30pm 26.6 23.5 -6.2 11 13.7 ESE 2 7 1 4 1012.4 - 0.0
31/07:00pm 28.8 24.5 -8.7 8 15.3 SE 7 17 4 9 1012.1 - 0.0
31/06:30pm 31.0 25.9 -8.8 7 16.5 ESE 11 15 6 8 1011.8 - 0.0
31/06:00pm 32.9 28.7 -7.4 7 17.4 ENE 7 17 4 9 1011.7 1011.3 0.0
31/05:30pm 33.6 29.7 -6.9 7 17.7 ENE 6 13 3 7 1011.6 - 0.0
31/05:00pm 34.3 30.4 -6.4 7 18.1 NW 6 9 3 5 1011.6 - 0.0
31/04:30pm 33.7 28.4 -6.8 7 17.8 ESE 13 19 7 10 1011.8 - 0.0

Other Formats:

Comma delimited format used in spreadsheet applications
http://www.bom.gov.au/fwo/IDD60801/IDD60801.94130.axf

JavaScript Object Notation format (JSON) in row-major order
http://www.bom.gov.au/fwo/IDD60801/IDD60801.94130.json